sensor_id;sensor_type;location;lat;lon;timestamp;P1;durP1;ratioP1;P2;durP2;ratioP2
16693;SDS011;39538;52.196;9.892;2022-12-24T00:02:19;9.63;;;8.50;;
16693;SDS011;39538;52.196;9.892;2022-12-24T00:04:46;12.20;;;9.40;;
16693;SDS011;39538;52.196;9.892;2022-12-24T00:07:12;11.03;;;9.30;;
16693;SDS011;39538;52.196;9.892;2022-12-24T00:09:39;10.90;;;9.80;;
16693;SDS011;39538;52.196;9.892;2022-12-24T00:12:05;9.77;;;7.80;;
16693;SDS011;39538;52.196;9.892;2022-12-24T00:14:33;12.37;;;9.33;;
16693;SDS011;39538;52.196;9.892;2022-12-24T00:17:00;16.07;;;9.90;;
16693;SDS011;39538;52.196;9.892;2022-12-24T00:19:26;15.83;;;12.73;;
16693;SDS011;39538;52.196;9.892;2022-12-24T00:21:53;12.73;;;9.77;;
16693;SDS011;39538;52.196;9.892;2022-12-24T00:24:19;13.30;;;9.30;;
16693;SDS011;39538;52.196;9.892;2022-12-24T00:26:46;10.07;;;9.03;;
16693;SDS011;39538;52.196;9.892;2022-12-24T00:29:12;13.03;;;9.67;;
16693;SDS011;39538;52.196;9.892;2022-12-24T00:31:40;11.60;;;9.13;;
16693;SDS011;39538;52.196;9.892;2022-12-24T00:34:06;14.80;;;9.73;;
16693;SDS011;39538;52.196;9.892;2022-12-24T00:36:33;8.60;;;7.80;;
16693;SDS011;39538;52.196;9.892;2022-12-24T00:38:59;11.63;;;9.77;;
16693;SDS011;39538;52.196;9.892;2022-12-24T00:41:25;11.07;;;8.27;;
16693;SDS011;39538;52.196;9.892;2022-12-24T00:43:53;10.47;;;8.77;;
16693;SDS011;39538;52.196;9.892;2022-12-24T00:46:21;13.03;;;9.70;;
16693;SDS011;39538;52.196;9.892;2022-12-24T00:48:49;9.47;;;7.80;;
16693;SDS011;39538;52.196;9.892;2022-12-24T00:51:16;8.23;;;6.47;;
16693;SDS011;39538;52.196;9.892;2022-12-24T00:53:42;7.83;;;5.83;;
16693;SDS011;39538;52.196;9.892;2022-12-24T00:56:09;5.87;;;5.30;;
16693;SDS011;39538;52.196;9.892;2022-12-24T00:58:35;6.63;;;5.90;;
16693;SDS011;39538;52.196;9.892;2022-12-24T01:01:02;6.73;;;5.13;;
16693;SDS011;39538;52.196;9.892;2022-12-24T01:03:29;5.87;;;5.27;;
16693;SDS011;39538;52.196;9.892;2022-12-24T01:06:03;6.33;;;5.20;;
16693;SDS011;39538;52.196;9.892;2022-12-24T01:08:30;5.50;;;4.73;;
16693;SDS011;39538;52.196;9.892;2022-12-24T01:10:57;4.97;;;3.77;;
16693;SDS011;39538;52.196;9.892;2022-12-24T01:13:23;5.67;;;4.37;;
16693;SDS011;39538;52.196;9.892;2022-12-24T01:15:50;6.17;;;4.70;;
16693;SDS011;39538;52.196;9.892;2022-12-24T01:18:17;5.37;;;4.53;;
16693;SDS011;39538;52.196;9.892;2022-12-24T01:20:43;6.40;;;5.30;;
16693;SDS011;39538;52.196;9.892;2022-12-24T01:23:11;4.13;;;3.73;;
16693;SDS011;39538;52.196;9.892;2022-12-24T01:25:38;6.50;;;3.80;;
16693;SDS011;39538;52.196;9.892;2022-12-24T01:28:04;4.93;;;4.43;;
16693;SDS011;39538;52.196;9.892;2022-12-24T01:30:31;5.30;;;4.90;;
16693;SDS011;39538;52.196;9.892;2022-12-24T01:32:57;5.13;;;3.97;;
16693;SDS011;39538;52.196;9.892;2022-12-24T01:35:24;5.80;;;4.57;;
16693;SDS011;39538;52.196;9.892;2022-12-24T01:37:50;5.50;;;4.80;;
16693;SDS011;39538;52.196;9.892;2022-12-24T01:40:18;4.17;;;3.60;;
16693;SDS011;39538;52.196;9.892;2022-12-24T01:43:02;5.73;;;4.97;;
16693;SDS011;39538;52.196;9.892;2022-12-24T01:45:49;6.27;;;4.40;;
16693;SDS011;39538;52.196;9.892;2022-12-24T01:48:19;4.90;;;4.40;;
16693;SDS011;39538;52.196;9.892;2022-12-24T01:50:52;6.03;;;4.53;;
16693;SDS011;39538;52.196;9.892;2022-12-24T01:53:22;5.77;;;4.53;;
16693;SDS011;39538;52.196;9.892;2022-12-24T01:55:50;6.37;;;4.77;;
16693;SDS011;39538;52.196;9.892;2022-12-24T01:58:17;5.47;;;4.33;;
16693;SDS011;39538;52.196;9.892;2022-12-24T02:00:46;6.07;;;5.47;;
16693;SDS011;39538;52.196;9.892;2022-12-24T02:03:13;7.47;;;5.73;;
16693;SDS011;39538;52.196;9.892;2022-12-24T02:05:41;12.47;;;7.13;;
16693;SDS011;39538;52.196;9.892;2022-12-24T02:08:12;8.73;;;7.73;;
16693;SDS011;39538;52.196;9.892;2022-12-24T02:10:39;10.83;;;6.23;;
16693;SDS011;39538;52.196;9.892;2022-12-24T02:13:07;5.93;;;5.33;;
16693;SDS011;39538;52.196;9.892;2022-12-24T02:15:35;10.00;;;4.50;;
16693;SDS011;39538;52.196;9.892;2022-12-24T02:18:13;5.83;;;3.77;;
16693;SDS011;39538;52.196;9.892;2022-12-24T02:21:01;7.23;;;3.10;;
16693;SDS011;39538;52.196;9.892;2022-12-24T02:23:53;5.47;;;1.77;;
16693;SDS011;39538;52.196;9.892;2022-12-24T02:26:40;5.37;;;1.80;;
16693;SDS011;39538;52.196;9.892;2022-12-24T02:29:31;2.37;;;2.03;;
16693;SDS011;39538;52.196;9.892;2022-12-24T02:32:24;4.53;;;1.90;;
16693;SDS011;39538;52.196;9.892;2022-12-24T02:34:57;5.40;;;3.00;;
16693;SDS011;39538;52.196;9.892;2022-12-24T02:37:30;12.33;;;2.43;;
16693;SDS011;39538;52.196;9.892;2022-12-24T02:40:02;10.43;;;3.17;;
16693;SDS011;39538;52.196;9.892;2022-12-24T02:42:35;10.50;;;4.97;;
16693;SDS011;39538;52.196;9.892;2022-12-24T02:45:06;16.57;;;4.13;;
16693;SDS011;39538;52.196;9.892;2022-12-24T02:47:35;9.67;;;4.10;;
16693;SDS011;39538;52.196;9.892;2022-12-24T02:50:05;10.10;;;2.47;;
16693;SDS011;39538;52.196;9.892;2022-12-24T02:52:33;7.40;;;2.87;;
16693;SDS011;39538;52.196;9.892;2022-12-24T02:55:03;5.37;;;3.03;;
16693;SDS011;39538;52.196;9.892;2022-12-24T02:57:35;6.57;;;3.90;;
16693;SDS011;39538;52.196;9.892;2022-12-24T03:00:13;12.17;;;5.03;;
16693;SDS011;39538;52.196;9.892;2022-12-24T03:05:45;6.47;;;3.83;;
16693;SDS011;39538;52.196;9.892;2022-12-24T03:08:15;5.40;;;2.57;;
16693;SDS011;39538;52.196;9.892;2022-12-24T03:10:54;4.63;;;2.10;;
16693;SDS011;39538;52.196;9.892;2022-12-24T03:13:25;13.13;;;3.70;;
16693;SDS011;39538;52.196;9.892;2022-12-24T03:15:54;6.77;;;4.27;;
16693;SDS011;39538;52.196;9.892;2022-12-24T03:18:21;5.50;;;3.57;;
16693;SDS011;39538;52.196;9.892;2022-12-24T03:20:51;7.37;;;2.97;;
16693;SDS011;39538;52.196;9.892;2022-12-24T03:23:22;6.90;;;3.03;;
16693;SDS011;39538;52.196;9.892;2022-12-24T03:25:49;6.73;;;2.30;;
16693;SDS011;39538;52.196;9.892;2022-12-24T03:28:16;8.67;;;2.73;;
16693;SDS011;39538;52.196;9.892;2022-12-24T03:30:45;5.97;;;2.57;;
16693;SDS011;39538;52.196;9.892;2022-12-24T03:33:15;7.83;;;4.30;;
16693;SDS011;39538;52.196;9.892;2022-12-24T03:35:42;11.97;;;4.63;;
16693;SDS011;39538;52.196;9.892;2022-12-24T03:38:08;6.47;;;1.40;;
16693;SDS011;39538;52.196;9.892;2022-12-24T03:40:35;7.80;;;2.77;;
16693;SDS011;39538;52.196;9.892;2022-12-24T03:43:01;8.03;;;2.43;;
16693;SDS011;39538;52.196;9.892;2022-12-24T03:45:28;5.33;;;2.10;;
16693;SDS011;39538;52.196;9.892;2022-12-24T03:47:54;9.57;;;3.43;;
16693;SDS011;39538;52.196;9.892;2022-12-24T03:50:23;14.43;;;2.97;;
16693;SDS011;39538;52.196;9.892;2022-12-24T03:52:49;14.73;;;3.00;;
16693;SDS011;39538;52.196;9.892;2022-12-24T03:55:15;4.40;;;3.13;;
16693;SDS011;39538;52.196;9.892;2022-12-24T03:57:42;12.13;;;4.63;;
16693;SDS011;39538;52.196;9.892;2022-12-24T04:00:09;12.90;;;3.20;;
16693;SDS011;39538;52.196;9.892;2022-12-24T04:02:36;18.10;;;3.30;;
16693;SDS011;39538;52.196;9.892;2022-12-24T04:05:02;12.50;;;4.20;;
16693;SDS011;39538;52.196;9.892;2022-12-24T04:07:31;6.40;;;2.80;;
16693;SDS011;39538;52.196;9.892;2022-12-24T04:09:58;12.37;;;3.53;;
16693;SDS011;39538;52.196;9.892;2022-12-24T04:12:24;15.17;;;3.87;;
16693;SDS011;39538;52.196;9.892;2022-12-24T04:14:51;7.20;;;2.40;;
16693;SDS011;39538;52.196;9.892;2022-12-24T04:17:17;9.37;;;4.13;;
16693;SDS011;39538;52.196;9.892;2022-12-24T04:19:43;6.07;;;2.70;;
16693;SDS011;39538;52.196;9.892;2022-12-24T04:22:10;8.03;;;5.70;;
16693;SDS011;39538;52.196;9.892;2022-12-24T04:24:37;28.33;;;5.10;;
16693;SDS011;39538;52.196;9.892;2022-12-24T04:27:04;9.83;;;2.90;;
16693;SDS011;39538;52.196;9.892;2022-12-24T04:29:30;19.93;;;4.93;;
16693;SDS011;39538;52.196;9.892;2022-12-24T04:31:56;9.43;;;4.47;;
16693;SDS011;39538;52.196;9.892;2022-12-24T04:34:23;7.53;;;3.43;;
16693;SDS011;39538;52.196;9.892;2022-12-24T04:36:49;12.63;;;3.43;;
16693;SDS011;39538;52.196;9.892;2022-12-24T04:39:16;12.53;;;3.37;;
16693;SDS011;39538;52.196;9.892;2022-12-24T04:41:43;10.27;;;3.47;;
16693;SDS011;39538;52.196;9.892;2022-12-24T04:44:10;7.63;;;3.57;;
16693;SDS011;39538;52.196;9.892;2022-12-24T04:46:36;10.27;;;4.03;;
16693;SDS011;39538;52.196;9.892;2022-12-24T04:49:02;10.97;;;4.20;;
16693;SDS011;39538;52.196;9.892;2022-12-24T04:51:29;12.87;;;5.57;;
16693;SDS011;39538;52.196;9.892;2022-12-24T04:53:55;3.57;;;3.27;;
16693;SDS011;39538;52.196;9.892;2022-12-24T04:56:23;12.10;;;3.73;;
16693;SDS011;39538;52.196;9.892;2022-12-24T04:58:52;11.63;;;3.73;;
16693;SDS011;39538;52.196;9.892;2022-12-24T05:01:20;8.03;;;4.03;;
16693;SDS011;39538;52.196;9.892;2022-12-24T05:03:48;11.30;;;3.60;;
16693;SDS011;39538;52.196;9.892;2022-12-24T05:06:16;5.63;;;3.80;;
16693;SDS011;39538;52.196;9.892;2022-12-24T05:08:44;16.43;;;3.07;;
16693;SDS011;39538;52.196;9.892;2022-12-24T05:11:11;6.47;;;4.63;;
16693;SDS011;39538;52.196;9.892;2022-12-24T05:13:39;10.87;;;4.27;;
16693;SDS011;39538;52.196;9.892;2022-12-24T05:16:08;5.20;;;2.10;;
16693;SDS011;39538;52.196;9.892;2022-12-24T05:18:34;6.83;;;2.40;;
16693;SDS011;39538;52.196;9.892;2022-12-24T05:21:01;6.90;;;3.43;;
16693;SDS011;39538;52.196;9.892;2022-12-24T05:23:27;6.53;;;2.30;;
16693;SDS011;39538;52.196;9.892;2022-12-24T05:26:13;8.67;;;4.33;;
16693;SDS011;39538;52.196;9.892;2022-12-24T05:28:47;11.27;;;3.50;;
16693;SDS011;39538;52.196;9.892;2022-12-24T05:31:14;5.83;;;2.27;;
16693;SDS011;39538;52.196;9.892;2022-12-24T05:33:41;8.67;;;3.47;;
16693;SDS011;39538;52.196;9.892;2022-12-24T05:36:08;12.53;;;3.03;;
16693;SDS011;39538;52.196;9.892;2022-12-24T05:38:34;10.63;;;4.60;;
16693;SDS011;39538;52.196;9.892;2022-12-24T05:41:00;5.20;;;3.83;;
16693;SDS011;39538;52.196;9.892;2022-12-24T05:43:27;6.47;;;4.30;;
16693;SDS011;39538;52.196;9.892;2022-12-24T05:45:56;7.03;;;3.80;;
16693;SDS011;39538;52.196;9.892;2022-12-24T05:48:24;7.67;;;4.47;;
16693;SDS011;39538;52.196;9.892;2022-12-24T05:50:51;15.57;;;5.93;;
16693;SDS011;39538;52.196;9.892;2022-12-24T05:53:17;17.83;;;4.37;;
16693;SDS011;39538;52.196;9.892;2022-12-24T05:55:44;9.03;;;2.87;;
16693;SDS011;39538;52.196;9.892;2022-12-24T05:58:10;11.57;;;4.03;;
16693;SDS011;39538;52.196;9.892;2022-12-24T06:00:36;9.23;;;3.97;;
16693;SDS011;39538;52.196;9.892;2022-12-24T06:03:03;8.13;;;3.60;;
16693;SDS011;39538;52.196;9.892;2022-12-24T06:05:31;5.77;;;4.53;;
16693;SDS011;39538;52.196;9.892;2022-12-24T06:07:57;10.60;;;4.10;;
16693;SDS011;39538;52.196;9.892;2022-12-24T06:10:24;20.13;;;5.23;;
16693;SDS011;39538;52.196;9.892;2022-12-24T06:12:50;10.77;;;2.83;;
16693;SDS011;39538;52.196;9.892;2022-12-24T06:15:17;12.87;;;5.43;;
16693;SDS011;39538;52.196;9.892;2022-12-24T06:17:43;6.20;;;3.40;;
16693;SDS011;39538;52.196;9.892;2022-12-24T06:20:10;12.30;;;3.97;;
16693;SDS011;39538;52.196;9.892;2022-12-24T06:22:38;19.17;;;4.63;;
16693;SDS011;39538;52.196;9.892;2022-12-24T06:25:04;22.90;;;4.73;;
16693;SDS011;39538;52.196;9.892;2022-12-24T06:27:31;11.97;;;6.17;;
16693;SDS011;39538;52.196;9.892;2022-12-24T06:29:58;10.90;;;3.47;;
16693;SDS011;39538;52.196;9.892;2022-12-24T06:32:24;10.83;;;4.60;;
16693;SDS011;39538;52.196;9.892;2022-12-24T06:34:50;7.10;;;4.33;;
16693;SDS011;39538;52.196;9.892;2022-12-24T06:37:17;7.30;;;3.57;;
16693;SDS011;39538;52.196;9.892;2022-12-24T06:39:45;12.23;;;4.43;;
16693;SDS011;39538;52.196;9.892;2022-12-24T06:42:11;22.57;;;4.73;;
16693;SDS011;39538;52.196;9.892;2022-12-24T06:44:38;15.93;;;5.23;;
16693;SDS011;39538;52.196;9.892;2022-12-24T06:47:04;8.63;;;3.60;;
16693;SDS011;39538;52.196;9.892;2022-12-24T06:49:30;24.37;;;5.37;;
16693;SDS011;39538;52.196;9.892;2022-12-24T06:51:57;10.80;;;4.53;;
16693;SDS011;39538;52.196;9.892;2022-12-24T06:54:23;14.23;;;4.77;;
16693;SDS011;39538;52.196;9.892;2022-12-24T06:56:51;4.33;;;3.27;;
16693;SDS011;39538;52.196;9.892;2022-12-24T06:59:18;14.27;;;3.83;;
16693;SDS011;39538;52.196;9.892;2022-12-24T07:01:44;11.20;;;5.10;;
16693;SDS011;39538;52.196;9.892;2022-12-24T07:04:11;16.07;;;4.17;;
16693;SDS011;39538;52.196;9.892;2022-12-24T07:06:37;9.37;;;3.23;;
16693;SDS011;39538;52.196;9.892;2022-12-24T07:09:03;9.23;;;4.00;;
16693;SDS011;39538;52.196;9.892;2022-12-24T07:11:30;8.63;;;5.67;;
16693;SDS011;39538;52.196;9.892;2022-12-24T07:13:57;17.23;;;5.77;;
16693;SDS011;39538;52.196;9.892;2022-12-24T07:16:24;14.50;;;3.40;;
16693;SDS011;39538;52.196;9.892;2022-12-24T07:18:50;10.07;;;3.97;;
16693;SDS011;39538;52.196;9.892;2022-12-24T07:21:17;14.13;;;3.60;;
16693;SDS011;39538;52.196;9.892;2022-12-24T07:23:43;19.13;;;4.40;;
16693;SDS011;39538;52.196;9.892;2022-12-24T07:26:10;10.37;;;3.77;;
16693;SDS011;39538;52.196;9.892;2022-12-24T07:28:36;11.80;;;3.37;;
16693;SDS011;39538;52.196;9.892;2022-12-24T07:31:04;6.73;;;4.40;;
16693;SDS011;39538;52.196;9.892;2022-12-24T07:33:31;17.53;;;5.57;;
16693;SDS011;39538;52.196;9.892;2022-12-24T07:35:58;13.60;;;5.60;;
16693;SDS011;39538;52.196;9.892;2022-12-24T07:38:25;11.73;;;7.80;;
16693;SDS011;39538;52.196;9.892;2022-12-24T07:40:52;15.63;;;5.03;;
16693;SDS011;39538;52.196;9.892;2022-12-24T07:43:18;11.07;;;4.33;;
16693;SDS011;39538;52.196;9.892;2022-12-24T07:45:45;19.33;;;5.47;;
16693;SDS011;39538;52.196;9.892;2022-12-24T07:48:13;17.00;;;5.13;;
16693;SDS011;39538;52.196;9.892;2022-12-24T07:50:39;19.30;;;5.27;;
16693;SDS011;39538;52.196;9.892;2022-12-24T07:53:05;20.37;;;6.20;;
16693;SDS011;39538;52.196;9.892;2022-12-24T07:55:32;20.73;;;5.67;;
16693;SDS011;39538;52.196;9.892;2022-12-24T07:57:58;11.20;;;4.57;;
16693;SDS011;39538;52.196;9.892;2022-12-24T08:00:25;8.17;;;5.70;;
16693;SDS011;39538;52.196;9.892;2022-12-24T08:02:51;18.93;;;5.20;;
16693;SDS011;39538;52.196;9.892;2022-12-24T08:05:19;11.30;;;4.77;;
16693;SDS011;39538;52.196;9.892;2022-12-24T08:07:46;10.30;;;4.20;;
16693;SDS011;39538;52.196;9.892;2022-12-24T08:10:12;10.27;;;4.80;;
16693;SDS011;39538;52.196;9.892;2022-12-24T08:12:38;16.23;;;4.10;;
16693;SDS011;39538;52.196;9.892;2022-12-24T08:15:05;18.60;;;4.90;;
16693;SDS011;39538;52.196;9.892;2022-12-24T08:17:32;10.30;;;4.43;;
16693;SDS011;39538;52.196;9.892;2022-12-24T08:19:58;15.03;;;5.37;;
16693;SDS011;39538;52.196;9.892;2022-12-24T08:22:26;10.33;;;6.50;;
16693;SDS011;39538;52.196;9.892;2022-12-24T08:24:54;12.80;;;4.10;;
16693;SDS011;39538;52.196;9.892;2022-12-24T08:27:20;7.90;;;4.23;;
16693;SDS011;39538;52.196;9.892;2022-12-24T08:29:46;12.47;;;4.70;;
16693;SDS011;39538;52.196;9.892;2022-12-24T08:32:13;12.77;;;3.60;;
16693;SDS011;39538;52.196;9.892;2022-12-24T08:34:39;19.00;;;3.97;;
16693;SDS011;39538;52.196;9.892;2022-12-24T08:37:06;11.37;;;4.67;;
16693;SDS011;39538;52.196;9.892;2022-12-24T08:39:33;10.13;;;4.17;;
16693;SDS011;39538;52.196;9.892;2022-12-24T08:42:00;21.57;;;4.90;;
16693;SDS011;39538;52.196;9.892;2022-12-24T08:44:26;8.10;;;4.43;;
16693;SDS011;39538;52.196;9.892;2022-12-24T08:46:53;20.33;;;3.77;;
16693;SDS011;39538;52.196;9.892;2022-12-24T08:49:19;17.50;;;4.90;;
16693;SDS011;39538;52.196;9.892;2022-12-24T08:51:46;13.60;;;5.03;;
16693;SDS011;39538;52.196;9.892;2022-12-24T08:54:13;13.53;;;4.87;;
16693;SDS011;39538;52.196;9.892;2022-12-24T08:56:40;18.43;;;4.73;;
16693;SDS011;39538;52.196;9.892;2022-12-24T08:59:07;16.37;;;6.37;;
16693;SDS011;39538;52.196;9.892;2022-12-24T09:01:33;17.00;;;6.23;;
16693;SDS011;39538;52.196;9.892;2022-12-24T09:04:00;24.33;;;7.10;;
16693;SDS011;39538;52.196;9.892;2022-12-24T09:06:27;22.17;;;7.50;;
16693;SDS011;39538;52.196;9.892;2022-12-24T09:08:53;23.43;;;8.20;;
16693;SDS011;39538;52.196;9.892;2022-12-24T09:11:19;14.60;;;7.63;;
16693;SDS011;39538;52.196;9.892;2022-12-24T09:13:47;18.67;;;7.63;;
16693;SDS011;39538;52.196;9.892;2022-12-24T09:16:14;12.60;;;7.10;;
16693;SDS011;39538;52.196;9.892;2022-12-24T09:18:41;21.30;;;8.20;;
16693;SDS011;39538;52.196;9.892;2022-12-24T09:21:08;19.27;;;7.13;;
16693;SDS011;39538;52.196;9.892;2022-12-24T09:23:38;15.60;;;5.73;;
16693;SDS011;39538;52.196;9.892;2022-12-24T09:26:06;11.57;;;7.13;;
16693;SDS011;39538;52.196;9.892;2022-12-24T09:28:32;7.80;;;5.80;;
16693;SDS011;39538;52.196;9.892;2022-12-24T09:31:01;8.70;;;4.87;;
16693;SDS011;39538;52.196;9.892;2022-12-24T09:33:29;7.90;;;4.97;;
16693;SDS011;39538;52.196;9.892;2022-12-24T09:35:57;11.77;;;5.53;;
16693;SDS011;39538;52.196;9.892;2022-12-24T09:38:24;12.07;;;6.93;;
16693;SDS011;39538;52.196;9.892;2022-12-24T09:40:51;10.47;;;4.00;;
16693;SDS011;39538;52.196;9.892;2022-12-24T09:43:19;8.27;;;5.60;;
16693;SDS011;39538;52.196;9.892;2022-12-24T09:45:49;8.30;;;3.63;;
16693;SDS011;39538;52.196;9.892;2022-12-24T09:48:28;5.07;;;3.83;;
16693;SDS011;39538;52.196;9.892;2022-12-24T09:50:58;7.13;;;4.03;;
16693;SDS011;39538;52.196;9.892;2022-12-24T09:53:29;4.33;;;3.20;;
16693;SDS011;39538;52.196;9.892;2022-12-24T09:56:02;8.87;;;4.87;;
16693;SDS011;39538;52.196;9.892;2022-12-24T09:58:33;11.27;;;4.60;;
16693;SDS011;39538;52.196;9.892;2022-12-24T10:01:02;9.53;;;4.37;;
16693;SDS011;39538;52.196;9.892;2022-12-24T10:03:30;8.50;;;5.23;;
16693;SDS011;39538;52.196;9.892;2022-12-24T10:06:00;9.80;;;4.97;;
16693;SDS011;39538;52.196;9.892;2022-12-24T10:08:35;7.70;;;5.63;;
16693;SDS011;39538;52.196;9.892;2022-12-24T10:11:14;6.53;;;5.90;;
16693;SDS011;39538;52.196;9.892;2022-12-24T10:13:51;8.63;;;6.27;;
16693;SDS011;39538;52.196;9.892;2022-12-24T10:16:31;9.30;;;5.80;;
16693;SDS011;39538;52.196;9.892;2022-12-24T10:19:09;9.87;;;4.67;;
16693;SDS011;39538;52.196;9.892;2022-12-24T10:21:42;8.90;;;6.23;;
16693;SDS011;39538;52.196;9.892;2022-12-24T10:24:16;18.23;;;6.27;;
16693;SDS011;39538;52.196;9.892;2022-12-24T10:26:49;14.60;;;6.00;;
16693;SDS011;39538;52.196;9.892;2022-12-24T10:29:22;5.80;;;4.80;;
16693;SDS011;39538;52.196;9.892;2022-12-24T10:31:53;5.87;;;5.37;;
16693;SDS011;39538;52.196;9.892;2022-12-24T10:34:27;8.30;;;5.57;;
16693;SDS011;39538;52.196;9.892;2022-12-24T10:36:58;15.80;;;6.50;;
16693;SDS011;39538;52.196;9.892;2022-12-24T10:39:28;8.27;;;4.40;;
16693;SDS011;39538;52.196;9.892;2022-12-24T10:41:55;10.90;;;7.27;;
16693;SDS011;39538;52.196;9.892;2022-12-24T10:44:25;13.77;;;5.50;;
16693;SDS011;39538;52.196;9.892;2022-12-24T10:46:54;7.23;;;5.17;;
16693;SDS011;39538;52.196;9.892;2022-12-24T10:49:23;7.17;;;4.00;;
16693;SDS011;39538;52.196;9.892;2022-12-24T10:51:58;9.00;;;3.97;;
16693;SDS011;39538;52.196;9.892;2022-12-24T10:54:28;10.07;;;4.87;;
16693;SDS011;39538;52.196;9.892;2022-12-24T10:57:02;7.23;;;4.23;;
16693;SDS011;39538;52.196;9.892;2022-12-24T10:59:39;6.07;;;3.63;;
16693;SDS011;39538;52.196;9.892;2022-12-24T11:02:23;9.47;;;4.17;;
16693;SDS011;39538;52.196;9.892;2022-12-24T11:04:53;7.23;;;5.23;;
16693;SDS011;39538;52.196;9.892;2022-12-24T11:07:21;10.17;;;4.87;;
16693;SDS011;39538;52.196;9.892;2022-12-24T11:09:53;7.47;;;5.37;;
16693;SDS011;39538;52.196;9.892;2022-12-24T11:12:21;11.17;;;5.00;;
16693;SDS011;39538;52.196;9.892;2022-12-24T11:14:57;3.93;;;3.67;;
16693;SDS011;39538;52.196;9.892;2022-12-24T11:17:26;12.17;;;4.13;;
16693;SDS011;39538;52.196;9.892;2022-12-24T11:19:54;11.37;;;4.43;;
16693;SDS011;39538;52.196;9.892;2022-12-24T11:22:22;5.20;;;4.63;;
16693;SDS011;39538;52.196;9.892;2022-12-24T11:24:56;5.83;;;5.33;;
16693;SDS011;39538;52.196;9.892;2022-12-24T11:27:29;5.50;;;4.37;;
16693;SDS011;39538;52.196;9.892;2022-12-24T11:30:10;10.13;;;5.67;;
16693;SDS011;39538;52.196;9.892;2022-12-24T11:32:46;4.90;;;4.17;;
16693;SDS011;39538;52.196;9.892;2022-12-24T11:35:16;8.17;;;4.80;;
16693;SDS011;39538;52.196;9.892;2022-12-24T11:37:45;8.07;;;5.70;;
16693;SDS011;39538;52.196;9.892;2022-12-24T11:40:17;9.27;;;5.13;;
16693;SDS011;39538;52.196;9.892;2022-12-24T11:42:46;4.57;;;4.17;;
16693;SDS011;39538;52.196;9.892;2022-12-24T11:45:19;8.50;;;4.70;;
16693;SDS011;39538;52.196;9.892;2022-12-24T11:47:47;9.17;;;4.93;;
16693;SDS011;39538;52.196;9.892;2022-12-24T11:50:19;4.37;;;3.60;;
16693;SDS011;39538;52.196;9.892;2022-12-24T11:52:49;5.77;;;3.13;;
16693;SDS011;39538;52.196;9.892;2022-12-24T11:55:22;2.87;;;1.70;;
16693;SDS011;39538;52.196;9.892;2022-12-24T11:57:55;2.33;;;2.13;;
16693;SDS011;39538;52.196;9.892;2022-12-24T12:00:26;4.37;;;1.93;;
16693;SDS011;39538;52.196;9.892;2022-12-24T12:02:54;2.23;;;1.73;;
16693;SDS011;39538;52.196;9.892;2022-12-24T12:05:27;4.00;;;1.63;;
16693;SDS011;39538;52.196;9.892;2022-12-24T12:07:57;3.13;;;1.47;;
16693;SDS011;39538;52.196;9.892;2022-12-24T12:10:35;3.47;;;1.53;;
16693;SDS011;39538;52.196;9.892;2022-12-24T12:13:06;2.03;;;1.50;;
16693;SDS011;39538;52.196;9.892;2022-12-24T12:15:38;3.23;;;1.60;;
16693;SDS011;39538;52.196;9.892;2022-12-24T12:18:10;1.90;;;1.63;;
16693;SDS011;39538;52.196;9.892;2022-12-24T12:20:41;6.97;;;2.00;;
16693;SDS011;39538;52.196;9.892;2022-12-24T12:23:11;3.47;;;1.27;;
16693;SDS011;39538;52.196;9.892;2022-12-24T12:25:43;1.53;;;1.43;;
16693;SDS011;39538;52.196;9.892;2022-12-24T12:28:16;2.83;;;2.03;;
16693;SDS011;39538;52.196;9.892;2022-12-24T12:30:48;2.87;;;1.80;;
16693;SDS011;39538;52.196;9.892;2022-12-24T12:33:25;2.70;;;1.57;;
16693;SDS011;39538;52.196;9.892;2022-12-24T12:36:00;2.00;;;1.33;;
16693;SDS011;39538;52.196;9.892;2022-12-24T12:38:28;2.37;;;1.67;;
16693;SDS011;39538;52.196;9.892;2022-12-24T12:40:59;4.50;;;2.43;;
16693;SDS011;39538;52.196;9.892;2022-12-24T12:43:36;4.63;;;2.53;;
16693;SDS011;39538;52.196;9.892;2022-12-24T12:46:17;3.30;;;1.67;;
16693;SDS011;39538;52.196;9.892;2022-12-24T12:48:57;3.83;;;2.67;;
16693;SDS011;39538;52.196;9.892;2022-12-24T12:51:36;4.33;;;2.53;;
16693;SDS011;39538;52.196;9.892;2022-12-24T12:54:14;5.13;;;2.40;;
16693;SDS011;39538;52.196;9.892;2022-12-24T12:56:52;5.27;;;4.27;;
16693;SDS011;39538;52.196;9.892;2022-12-24T12:59:28;9.87;;;7.43;;
16693;SDS011;39538;52.196;9.892;2022-12-24T13:01:59;8.80;;;8.07;;
16693;SDS011;39538;52.196;9.892;2022-12-24T13:10:29;10.80;;;9.00;;
16693;SDS011;39538;52.196;9.892;2022-12-24T13:13:21;10.57;;;7.70;;
16693;SDS011;39538;52.196;9.892;2022-12-24T13:16:18;16.90;;;8.93;;
16693;SDS011;39538;52.196;9.892;2022-12-24T13:19:07;22.57;;;10.97;;
16693;SDS011;39538;52.196;9.892;2022-12-24T13:21:49;9.33;;;5.83;;
16693;SDS011;39538;52.196;9.892;2022-12-24T13:24:21;11.10;;;7.13;;
16693;SDS011;39538;52.196;9.892;2022-12-24T13:27:00;11.07;;;6.63;;
16693;SDS011;39538;52.196;9.892;2022-12-24T13:29:28;8.87;;;6.50;;
16693;SDS011;39538;52.196;9.892;2022-12-24T13:32:04;17.20;;;6.77;;
16693;SDS011;39538;52.196;9.892;2022-12-24T13:35:25;18.20;;;7.47;;
16693;SDS011;39538;52.196;9.892;2022-12-24T13:44:16;10.20;;;5.73;;
16693;SDS011;39538;52.196;9.892;2022-12-24T13:47:01;10.90;;;7.53;;
16693;SDS011;39538;52.196;9.892;2022-12-24T13:49:35;17.73;;;9.10;;
16693;SDS011;39538;52.196;9.892;2022-12-24T13:52:13;13.03;;;11.43;;
16693;SDS011;39538;52.196;9.892;2022-12-24T13:54:44;15.23;;;6.60;;
16693;SDS011;39538;52.196;9.892;2022-12-24T13:57:31;25.03;;;7.97;;
16693;SDS011;39538;52.196;9.892;2022-12-24T14:00:03;9.37;;;6.07;;
16693;SDS011;39538;52.196;9.892;2022-12-24T14:02:34;19.43;;;6.93;;
16693;SDS011;39538;52.196;9.892;2022-12-24T14:05:05;15.90;;;9.53;;
16693;SDS011;39538;52.196;9.892;2022-12-24T14:07:43;15.53;;;5.97;;
16693;SDS011;39538;52.196;9.892;2022-12-24T14:10:18;16.67;;;8.60;;
16693;SDS011;39538;52.196;9.892;2022-12-24T14:12:48;9.70;;;6.07;;
16693;SDS011;39538;52.196;9.892;2022-12-24T14:18:26;15.30;;;7.70;;
16693;SDS011;39538;52.196;9.892;2022-12-24T14:20:55;14.57;;;11.13;;
16693;SDS011;39538;52.196;9.892;2022-12-24T14:23:27;12.50;;;4.80;;
16693;SDS011;39538;52.196;9.892;2022-12-24T14:25:59;13.87;;;7.07;;
16693;SDS011;39538;52.196;9.892;2022-12-24T14:28:29;9.23;;;6.50;;
16693;SDS011;39538;52.196;9.892;2022-12-24T14:30:59;15.83;;;9.57;;
16693;SDS011;39538;52.196;9.892;2022-12-24T14:33:27;8.00;;;7.17;;
16693;SDS011;39538;52.196;9.892;2022-12-24T14:35:55;9.80;;;5.80;;
16693;SDS011;39538;52.196;9.892;2022-12-24T14:38:23;22.00;;;5.40;;
16693;SDS011;39538;52.196;9.892;2022-12-24T14:40:52;9.77;;;6.70;;
16693;SDS011;39538;52.196;9.892;2022-12-24T14:43:27;9.63;;;6.10;;
16693;SDS011;39538;52.196;9.892;2022-12-24T14:46:03;8.90;;;6.17;;
16693;SDS011;39538;52.196;9.892;2022-12-24T14:48:39;9.43;;;5.87;;
16693;SDS011;39538;52.196;9.892;2022-12-24T14:51:12;7.37;;;6.63;;
16693;SDS011;39538;52.196;9.892;2022-12-24T14:53:48;12.90;;;6.00;;
16693;SDS011;39538;52.196;9.892;2022-12-24T14:56:31;6.90;;;6.13;;
16693;SDS011;39538;52.196;9.892;2022-12-24T14:58:57;11.70;;;6.97;;
16693;SDS011;39538;52.196;9.892;2022-12-24T15:01:29;19.70;;;7.60;;
16693;SDS011;39538;52.196;9.892;2022-12-24T15:03:58;17.53;;;7.53;;
16693;SDS011;39538;52.196;9.892;2022-12-24T15:06:27;17.63;;;8.37;;
16693;SDS011;39538;52.196;9.892;2022-12-24T15:08:56;18.07;;;8.50;;
16693;SDS011;39538;52.196;9.892;2022-12-24T15:11:23;16.63;;;7.07;;
16693;SDS011;39538;52.196;9.892;2022-12-24T15:13:50;12.00;;;5.40;;
16693;SDS011;39538;52.196;9.892;2022-12-24T15:16:21;14.53;;;6.67;;